Pagrindinis puslapis
METAR-TAF:

METAR-TAF

Oro uostai :

Buraida, Saudo Arabija

platuma: 26-18N, ilguma: 043-46E, Aukštis: 648 m

Dabartinis oras

Ataskaita buvo paskelbta 1 valandą ir 6 minutes, ne 03:00 UTC
Vėjas 7 kt iš Šiaurės/Šiaurės Rytų
Temperatūra 30°C
Drėgmė 35%
Slėgis 1007 hPa
Matomumas 10 km arba daugiau
nėra debesų žemiau 1500 m ir nėra kamuolinių lietaus debesų

METAR: OEGS 160300Z 02007KT CAVOK 30/13 Q1007

Laikas: 07:06 (04:06 UTC)

Prognozė

Ataskaita buvo paskelbta 5 valandos ir 6 minutes, ne 23:00 UTC
Prognozė galioja nuo 16 metu 00 UTC su 17 metu 06 UTC
Vėjas 8 kt iš Šiaurės
Matomumas: 7000 m
Tapsmas
nuo 16 metu 06 UTC su 16 metu 08 UTC
Vėjas 15 kt iš Šiaurės/Šiaurės Rytų
Tikimybė 30% :
Laikinai
nuo 16 metu 08 UTC su 16 metu 16 UTC
Matomumas: 3000 m
Dulkes pustymas
Tapsmas
nuo 16 metu 18 UTC su 16 metu 20 UTC
Vėjas 6 kt iš Šiaurės

TAF: OEGS 152300Z 1600/1706 36008KT 7000 NSC BECMG 1606/1608 03015KT PROB30 TEMPO 1608/1616 3000 BLDU BECMG 1618/1620 36006KT

Orai ataskaitas ir orų prognozės (METAR, TAF).

turimą stotys yra geltonos ir raudonos taškus žemėlapyje.

Perkelti pele per norėdami pamatyti stoties vardą.

Tada spustelėkite, norėdami matyti oro stebėjimo ir prognozės.

Norėdami pakeisti žemėlapį: spustelėkite ant žalios mygtukų su juodo kryžiaus žemyn,; žalią mygtuką su brūkšneliu, jei norite nutolinti; arba žalių rodyklių gretimoms žemėlapius.


METAR-TAF: